sensor_id;sensor_type;location;lat;lon;timestamp;P1;durP1;ratioP1;P2;durP2;ratioP2
10904;SDS011;5505;51.450;9.254;2022-09-03T00:02:35;1.83;;;0.60;;
10904;SDS011;5505;51.450;9.254;2022-09-03T00:05:28;1.90;;;0.80;;
10904;SDS011;5505;51.450;9.254;2022-09-03T00:08:24;1.70;;;0.63;;
10904;SDS011;5505;51.450;9.254;2022-09-03T00:11:19;1.00;;;0.23;;
10904;SDS011;5505;51.450;9.254;2022-09-03T00:14:10;1.30;;;0.60;;
10904;SDS011;5505;51.450;9.254;2022-09-03T00:17:01;2.10;;;0.77;;
10904;SDS011;5505;51.450;9.254;2022-09-03T00:19:53;1.60;;;0.60;;
10904;SDS011;5505;51.450;9.254;2022-09-03T00:22:44;0.77;;;0.50;;
10904;SDS011;5505;51.450;9.254;2022-09-03T00:25:35;5.77;;;0.80;;
10904;SDS011;5505;51.450;9.254;2022-09-03T00:28:27;0.80;;;0.60;;
10904;SDS011;5505;51.450;9.254;2022-09-03T00:31:28;1.43;;;0.60;;
10904;SDS011;5505;51.450;9.254;2022-09-03T00:34:22;1.33;;;0.57;;
10904;SDS011;5505;51.450;9.254;2022-09-03T00:37:14;1.23;;;0.93;;
10904;SDS011;5505;51.450;9.254;2022-09-03T00:40:02;1.80;;;0.50;;
10904;SDS011;5505;51.450;9.254;2022-09-03T00:42:54;2.87;;;0.67;;
10904;SDS011;5505;51.450;9.254;2022-09-03T00:45:50;1.03;;;0.60;;
10904;SDS011;5505;51.450;9.254;2022-09-03T00:48:47;1.70;;;0.60;;
10904;SDS011;5505;51.450;9.254;2022-09-03T00:51:55;1.30;;;0.50;;
10904;SDS011;5505;51.450;9.254;2022-09-03T00:54:49;4.33;;;0.63;;
10904;SDS011;5505;51.450;9.254;2022-09-03T00:57:44;3.80;;;0.50;;
10904;SDS011;5505;51.450;9.254;2022-09-03T01:00:41;1.40;;;0.60;;
10904;SDS011;5505;51.450;9.254;2022-09-03T01:03:33;1.07;;;0.70;;
10904;SDS011;5505;51.450;9.254;2022-09-03T01:06:29;1.30;;;0.77;;
10904;SDS011;5505;51.450;9.254;2022-09-03T01:09:28;1.70;;;0.70;;
10904;SDS011;5505;51.450;9.254;2022-09-03T01:12:25;0.63;;;0.47;;
10904;SDS011;5505;51.450;9.254;2022-09-03T01:15:21;1.20;;;0.57;;
10904;SDS011;5505;51.450;9.254;2022-09-03T01:18:18;1.00;;;0.80;;
10904;SDS011;5505;51.450;9.254;2022-09-03T01:21:20;0.50;;;0.40;;
10904;SDS011;5505;51.450;9.254;2022-09-03T01:24:30;2.10;;;0.50;;
10904;SDS011;5505;51.450;9.254;2022-09-03T01:27:45;1.13;;;0.63;;
10904;SDS011;5505;51.450;9.254;2022-09-03T01:33:57;1.00;;;0.70;;
10904;SDS011;5505;51.450;9.254;2022-09-03T01:36:55;1.30;;;0.40;;
10904;SDS011;5505;51.450;9.254;2022-09-03T01:39:55;0.50;;;0.40;;
10904;SDS011;5505;51.450;9.254;2022-09-03T01:42:52;1.03;;;0.60;;
10904;SDS011;5505;51.450;9.254;2022-09-03T01:45:51;1.80;;;0.60;;
10904;SDS011;5505;51.450;9.254;2022-09-03T01:48:44;0.80;;;0.53;;
10904;SDS011;5505;51.450;9.254;2022-09-03T01:51:38;2.63;;;0.50;;
10904;SDS011;5505;51.450;9.254;2022-09-03T01:54:29;1.77;;;0.60;;
10904;SDS011;5505;51.450;9.254;2022-09-03T01:57:34;1.07;;;0.60;;
10904;SDS011;5505;51.450;9.254;2022-09-03T02:00:29;0.50;;;0.50;;
10904;SDS011;5505;51.450;9.254;2022-09-03T02:03:19;0.87;;;0.60;;
10904;SDS011;5505;51.450;9.254;2022-09-03T02:06:07;0.60;;;0.50;;
10904;SDS011;5505;51.450;9.254;2022-09-03T02:08:56;1.20;;;0.70;;
10904;SDS011;5505;51.450;9.254;2022-09-03T02:11:44;1.30;;;0.60;;
10904;SDS011;5505;51.450;9.254;2022-09-03T02:14:36;0.57;;;0.57;;
10904;SDS011;5505;51.450;9.254;2022-09-03T02:17:24;4.03;;;0.70;;
10904;SDS011;5505;51.450;9.254;2022-09-03T02:20:17;0.83;;;0.70;;
10904;SDS011;5505;51.450;9.254;2022-09-03T02:23:05;1.97;;;0.50;;
10904;SDS011;5505;51.450;9.254;2022-09-03T02:25:54;0.70;;;0.57;;
10904;SDS011;5505;51.450;9.254;2022-09-03T02:28:42;0.83;;;0.60;;
10904;SDS011;5505;51.450;9.254;2022-09-03T02:31:30;1.53;;;0.57;;
10904;SDS011;5505;51.450;9.254;2022-09-03T02:34:18;2.50;;;0.67;;
10904;SDS011;5505;51.450;9.254;2022-09-03T02:37:10;1.40;;;0.63;;
10904;SDS011;5505;51.450;9.254;2022-09-03T02:39:58;0.73;;;0.70;;
10904;SDS011;5505;51.450;9.254;2022-09-03T02:42:46;2.47;;;0.53;;
10904;SDS011;5505;51.450;9.254;2022-09-03T02:45:33;3.50;;;0.87;;
10904;SDS011;5505;51.450;9.254;2022-09-03T02:48:23;0.50;;;0.50;;
10904;SDS011;5505;51.450;9.254;2022-09-03T02:51:12;1.03;;;0.50;;
10904;SDS011;5505;51.450;9.254;2022-09-03T02:53:59;2.87;;;0.67;;
10904;SDS011;5505;51.450;9.254;2022-09-03T02:56:46;1.17;;;0.70;;
10904;SDS011;5505;51.450;9.254;2022-09-03T02:59:33;1.77;;;0.60;;
10904;SDS011;5505;51.450;9.254;2022-09-03T03:02:21;2.60;;;0.70;;
10904;SDS011;5505;51.450;9.254;2022-09-03T03:05:08;1.60;;;0.67;;
10904;SDS011;5505;51.450;9.254;2022-09-03T03:08:04;3.60;;;0.70;;
10904;SDS011;5505;51.450;9.254;2022-09-03T03:10:53;0.60;;;0.60;;
10904;SDS011;5505;51.450;9.254;2022-09-03T03:13:43;1.73;;;0.80;;
10904;SDS011;5505;51.450;9.254;2022-09-03T03:16:30;1.07;;;0.80;;
10904;SDS011;5505;51.450;9.254;2022-09-03T03:19:17;1.50;;;1.07;;
10904;SDS011;5505;51.450;9.254;2022-09-03T03:22:04;3.13;;;0.77;;
10904;SDS011;5505;51.450;9.254;2022-09-03T03:24:52;1.20;;;0.97;;
10904;SDS011;5505;51.450;9.254;2022-09-03T03:27:41;1.13;;;0.83;;
10904;SDS011;5505;51.450;9.254;2022-09-03T03:30:28;1.20;;;0.97;;
10904;SDS011;5505;51.450;9.254;2022-09-03T03:33:15;2.03;;;1.10;;
10904;SDS011;5505;51.450;9.254;2022-09-03T03:36:05;1.33;;;1.20;;
10904;SDS011;5505;51.450;9.254;2022-09-03T03:38:53;1.20;;;0.97;;
10904;SDS011;5505;51.450;9.254;2022-09-03T03:41:42;1.23;;;1.13;;
10904;SDS011;5505;51.450;9.254;2022-09-03T03:44:29;2.03;;;1.40;;
10904;SDS011;5505;51.450;9.254;2022-09-03T03:47:16;2.93;;;1.60;;
10904;SDS011;5505;51.450;9.254;2022-09-03T03:50:03;2.97;;;1.90;;
10904;SDS011;5505;51.450;9.254;2022-09-03T03:52:51;1.87;;;1.50;;
10904;SDS011;5505;51.450;9.254;2022-09-03T03:55:38;2.47;;;1.80;;
10904;SDS011;5505;51.450;9.254;2022-09-03T03:58:28;3.17;;;1.80;;
10904;SDS011;5505;51.450;9.254;2022-09-03T04:01:16;2.43;;;1.93;;
10904;SDS011;5505;51.450;9.254;2022-09-03T04:04:05;3.93;;;1.70;;
10904;SDS011;5505;51.450;9.254;2022-09-03T04:06:51;2.07;;;1.77;;
10904;SDS011;5505;51.450;9.254;2022-09-03T04:09:38;1.97;;;1.73;;
10904;SDS011;5505;51.450;9.254;2022-09-03T04:12:25;2.00;;;1.80;;
10904;SDS011;5505;51.450;9.254;2022-09-03T04:15:14;2.27;;;1.90;;
10904;SDS011;5505;51.450;9.254;2022-09-03T04:18:01;2.23;;;1.90;;
10904;SDS011;5505;51.450;9.254;2022-09-03T04:20:47;5.13;;;1.90;;
10904;SDS011;5505;51.450;9.254;2022-09-03T04:23:35;2.43;;;2.20;;
10904;SDS011;5505;51.450;9.254;2022-09-03T04:26:24;3.53;;;2.17;;
10904;SDS011;5505;51.450;9.254;2022-09-03T04:29:15;2.83;;;2.20;;
10904;SDS011;5505;51.450;9.254;2022-09-03T04:32:04;3.10;;;2.50;;
10904;SDS011;5505;51.450;9.254;2022-09-03T04:35:09;5.23;;;2.37;;
10904;SDS011;5505;51.450;9.254;2022-09-03T04:37:56;3.03;;;2.33;;
10904;SDS011;5505;51.450;9.254;2022-09-03T04:40:43;2.50;;;2.20;;
10904;SDS011;5505;51.450;9.254;2022-09-03T04:43:37;3.10;;;2.30;;
10904;SDS011;5505;51.450;9.254;2022-09-03T04:46:26;2.23;;;2.03;;
10904;SDS011;5505;51.450;9.254;2022-09-03T04:49:18;2.60;;;2.30;;
10904;SDS011;5505;51.450;9.254;2022-09-03T04:52:05;2.50;;;2.00;;
10904;SDS011;5505;51.450;9.254;2022-09-03T04:54:52;4.00;;;2.50;;
10904;SDS011;5505;51.450;9.254;2022-09-03T04:57:40;3.30;;;2.30;;
10904;SDS011;5505;51.450;9.254;2022-09-03T05:00:28;4.13;;;2.30;;
10904;SDS011;5505;51.450;9.254;2022-09-03T05:03:15;3.10;;;2.40;;
10904;SDS011;5505;51.450;9.254;2022-09-03T05:06:03;4.77;;;2.23;;
10904;SDS011;5505;51.450;9.254;2022-09-03T05:08:52;2.80;;;2.40;;
10904;SDS011;5505;51.450;9.254;2022-09-03T05:11:40;3.20;;;2.30;;
10904;SDS011;5505;51.450;9.254;2022-09-03T05:14:27;4.50;;;2.30;;
10904;SDS011;5505;51.450;9.254;2022-09-03T05:17:14;2.97;;;2.10;;
10904;SDS011;5505;51.450;9.254;2022-09-03T05:20:00;3.23;;;2.40;;
10904;SDS011;5505;51.450;9.254;2022-09-03T05:22:49;3.20;;;2.13;;
10904;SDS011;5505;51.450;9.254;2022-09-03T05:25:36;1.90;;;1.80;;
10904;SDS011;5505;51.450;9.254;2022-09-03T05:28:24;2.10;;;1.90;;
10904;SDS011;5505;51.450;9.254;2022-09-03T05:31:12;1.97;;;1.73;;
10904;SDS011;5505;51.450;9.254;2022-09-03T05:34:00;4.27;;;1.70;;
10904;SDS011;5505;51.450;9.254;2022-09-03T05:36:49;3.10;;;1.83;;
10904;SDS011;5505;51.450;9.254;2022-09-03T05:39:38;5.57;;;1.70;;
10904;SDS011;5505;51.450;9.254;2022-09-03T05:42:25;1.53;;;1.43;;
10904;SDS011;5505;51.450;9.254;2022-09-03T05:45:12;2.87;;;1.57;;
10904;SDS011;5505;51.450;9.254;2022-09-03T05:47:59;2.37;;;1.17;;
10904;SDS011;5505;51.450;9.254;2022-09-03T05:50:46;1.87;;;1.40;;
10904;SDS011;5505;51.450;9.254;2022-09-03T05:53:34;1.40;;;1.20;;
10904;SDS011;5505;51.450;9.254;2022-09-03T05:56:24;3.13;;;1.50;;
10904;SDS011;5505;51.450;9.254;2022-09-03T05:59:12;2.40;;;1.17;;
10904;SDS011;5505;51.450;9.254;2022-09-03T06:01:59;2.13;;;1.27;;
10904;SDS011;5505;51.450;9.254;2022-09-03T06:04:46;3.57;;;1.10;;
10904;SDS011;5505;51.450;9.254;2022-09-03T06:07:33;2.00;;;1.33;;
10904;SDS011;5505;51.450;9.254;2022-09-03T06:10:20;1.80;;;0.93;;
10904;SDS011;5505;51.450;9.254;2022-09-03T06:13:08;2.40;;;0.97;;
10904;SDS011;5505;51.450;9.254;2022-09-03T06:15:55;1.10;;;0.70;;
10904;SDS011;5505;51.450;9.254;2022-09-03T06:18:42;1.13;;;0.87;;
10904;SDS011;5505;51.450;9.254;2022-09-03T06:21:29;1.27;;;0.90;;
10904;SDS011;5505;51.450;9.254;2022-09-03T06:24:17;0.83;;;0.63;;
10904;SDS011;5505;51.450;9.254;2022-09-03T06:27:07;1.00;;;0.90;;
10904;SDS011;5505;51.450;9.254;2022-09-03T06:29:55;0.73;;;0.70;;
10904;SDS011;5505;51.450;9.254;2022-09-03T06:32:43;2.27;;;0.70;;
10904;SDS011;5505;51.450;9.254;2022-09-03T06:35:30;1.80;;;0.83;;
10904;SDS011;5505;51.450;9.254;2022-09-03T06:38:17;1.47;;;0.80;;
10904;SDS011;5505;51.450;9.254;2022-09-03T06:41:06;3.13;;;0.77;;
10904;SDS011;5505;51.450;9.254;2022-09-03T06:43:56;1.67;;;0.80;;
10904;SDS011;5505;51.450;9.254;2022-09-03T06:46:48;3.93;;;0.83;;
10904;SDS011;5505;51.450;9.254;2022-09-03T06:49:37;1.63;;;0.80;;
10904;SDS011;5505;51.450;9.254;2022-09-03T06:52:24;1.13;;;0.97;;
10904;SDS011;5505;51.450;9.254;2022-09-03T06:55:11;1.57;;;0.87;;
10904;SDS011;5505;51.450;9.254;2022-09-03T06:57:58;1.03;;;0.80;;
10904;SDS011;5505;51.450;9.254;2022-09-03T07:00:45;1.00;;;0.90;;
10904;SDS011;5505;51.450;9.254;2022-09-03T07:03:35;1.57;;;0.90;;
10904;SDS011;5505;51.450;9.254;2022-09-03T07:06:23;0.97;;;0.80;;
10904;SDS011;5505;51.450;9.254;2022-09-03T07:09:11;1.90;;;1.00;;
10904;SDS011;5505;51.450;9.254;2022-09-03T07:11:59;1.33;;;0.90;;
10904;SDS011;5505;51.450;9.254;2022-09-03T07:14:46;0.90;;;0.70;;
10904;SDS011;5505;51.450;9.254;2022-09-03T07:17:33;0.70;;;0.70;;
10904;SDS011;5505;51.450;9.254;2022-09-03T07:20:21;4.57;;;0.80;;
10904;SDS011;5505;51.450;9.254;2022-09-03T07:23:08;1.30;;;0.77;;
10904;SDS011;5505;51.450;9.254;2022-09-03T07:25:55;1.90;;;0.70;;
10904;SDS011;5505;51.450;9.254;2022-09-03T07:28:43;0.50;;;0.50;;
10904;SDS011;5505;51.450;9.254;2022-09-03T07:31:32;1.77;;;0.80;;
10904;SDS011;5505;51.450;9.254;2022-09-03T07:34:20;1.90;;;0.80;;
10904;SDS011;5505;51.450;9.254;2022-09-03T07:37:12;0.90;;;0.60;;
10904;SDS011;5505;51.450;9.254;2022-09-03T07:39:59;0.77;;;0.60;;
10904;SDS011;5505;51.450;9.254;2022-09-03T07:42:46;0.87;;;0.60;;
10904;SDS011;5505;51.450;9.254;2022-09-03T07:45:33;0.97;;;0.60;;
10904;SDS011;5505;51.450;9.254;2022-09-03T07:48:22;2.63;;;0.60;;
10904;SDS011;5505;51.450;9.254;2022-09-03T07:51:09;1.97;;;0.80;;
10904;SDS011;5505;51.450;9.254;2022-09-03T07:53:59;0.73;;;0.70;;
10904;SDS011;5505;51.450;9.254;2022-09-03T07:56:48;1.90;;;0.60;;
10904;SDS011;5505;51.450;9.254;2022-09-03T07:59:35;0.70;;;0.40;;
10904;SDS011;5505;51.450;9.254;2022-09-03T08:02:23;1.57;;;0.70;;
10904;SDS011;5505;51.450;9.254;2022-09-03T08:05:10;2.57;;;0.50;;
10904;SDS011;5505;51.450;9.254;2022-09-03T08:07:58;0.87;;;0.83;;
10904;SDS011;5505;51.450;9.254;2022-09-03T08:10:46;1.07;;;0.50;;
10904;SDS011;5505;51.450;9.254;2022-09-03T08:13:33;1.07;;;0.50;;
10904;SDS011;5505;51.450;9.254;2022-09-03T08:16:20;1.60;;;0.70;;
10904;SDS011;5505;51.450;9.254;2022-09-03T08:19:07;2.83;;;0.80;;
10904;SDS011;5505;51.450;9.254;2022-09-03T08:21:55;1.90;;;0.87;;
10904;SDS011;5505;51.450;9.254;2022-09-03T08:24:42;0.67;;;0.67;;
10904;SDS011;5505;51.450;9.254;2022-09-03T08:27:31;1.03;;;0.80;;
10904;SDS011;5505;51.450;9.254;2022-09-03T08:30:19;9.87;;;1.30;;
10904;SDS011;5505;51.450;9.254;2022-09-03T08:33:06;2.43;;;1.07;;
10904;SDS011;5505;51.450;9.254;2022-09-03T08:35:53;1.40;;;0.70;;
10904;SDS011;5505;51.450;9.254;2022-09-03T08:38:40;0.90;;;0.67;;
10904;SDS011;5505;51.450;9.254;2022-09-03T08:41:32;0.90;;;0.80;;
10904;SDS011;5505;51.450;9.254;2022-09-03T08:44:43;1.77;;;0.80;;
10904;SDS011;5505;51.450;9.254;2022-09-03T08:47:32;12.43;;;1.20;;
10904;SDS011;5505;51.450;9.254;2022-09-03T08:50:25;1.57;;;0.90;;
10904;SDS011;5505;51.450;9.254;2022-09-03T08:53:14;1.27;;;0.87;;
10904;SDS011;5505;51.450;9.254;2022-09-03T08:56:06;2.27;;;0.70;;
10904;SDS011;5505;51.450;9.254;2022-09-03T08:58:55;2.03;;;0.60;;
10904;SDS011;5505;51.450;9.254;2022-09-03T09:01:47;2.03;;;0.77;;
10904;SDS011;5505;51.450;9.254;2022-09-03T09:04:44;1.83;;;0.60;;
10904;SDS011;5505;51.450;9.254;2022-09-03T09:07:42;2.63;;;0.67;;
10904;SDS011;5505;51.450;9.254;2022-09-03T09:10:36;2.10;;;0.57;;
10904;SDS011;5505;51.450;9.254;2022-09-03T09:13:30;1.07;;;0.70;;
10904;SDS011;5505;51.450;9.254;2022-09-03T09:16:28;0.50;;;0.50;;
10904;SDS011;5505;51.450;9.254;2022-09-03T09:19:28;1.33;;;0.80;;
10904;SDS011;5505;51.450;9.254;2022-09-03T09:22:24;1.77;;;0.67;;
10904;SDS011;5505;51.450;9.254;2022-09-03T09:25:16;1.83;;;0.70;;
10904;SDS011;5505;51.450;9.254;2022-09-03T09:28:10;3.33;;;0.70;;
10904;SDS011;5505;51.450;9.254;2022-09-03T09:31:02;0.60;;;0.60;;
10904;SDS011;5505;51.450;9.254;2022-09-03T09:33:51;1.93;;;0.50;;
10904;SDS011;5505;51.450;9.254;2022-09-03T09:36:44;1.43;;;0.70;;
10904;SDS011;5505;51.450;9.254;2022-09-03T09:39:34;2.63;;;0.80;;
10904;SDS011;5505;51.450;9.254;2022-09-03T09:42:21;0.90;;;0.70;;
10904;SDS011;5505;51.450;9.254;2022-09-03T09:45:09;2.33;;;0.63;;
10904;SDS011;5505;51.450;9.254;2022-09-03T09:47:56;2.23;;;0.80;;
10904;SDS011;5505;51.450;9.254;2022-09-03T09:50:43;2.80;;;0.83;;
10904;SDS011;5505;51.450;9.254;2022-09-03T09:53:32;3.83;;;0.63;;
10904;SDS011;5505;51.450;9.254;2022-09-03T09:56:20;1.67;;;0.80;;
10904;SDS011;5505;51.450;9.254;2022-09-03T09:59:08;3.43;;;0.90;;
10904;SDS011;5505;51.450;9.254;2022-09-03T10:02:11;2.30;;;1.00;;
10904;SDS011;5505;51.450;9.254;2022-09-03T10:05:00;1.13;;;0.53;;
10904;SDS011;5505;51.450;9.254;2022-09-03T10:07:59;1.80;;;0.50;;
10904;SDS011;5505;51.450;9.254;2022-09-03T10:10:50;1.90;;;0.60;;
10904;SDS011;5505;51.450;9.254;2022-09-03T10:13:38;1.50;;;0.50;;
10904;SDS011;5505;51.450;9.254;2022-09-03T10:16:29;2.87;;;0.53;;
10904;SDS011;5505;51.450;9.254;2022-09-03T10:19:22;1.57;;;0.60;;
10904;SDS011;5505;51.450;9.254;2022-09-03T10:22:16;0.80;;;0.60;;
10904;SDS011;5505;51.450;9.254;2022-09-03T10:25:05;0.77;;;0.67;;
10904;SDS011;5505;51.450;9.254;2022-09-03T10:27:55;0.67;;;0.67;;
10904;SDS011;5505;51.450;9.254;2022-09-03T10:30:50;1.80;;;0.70;;
10904;SDS011;5505;51.450;9.254;2022-09-03T10:33:49;5.13;;;0.90;;
10904;SDS011;5505;51.450;9.254;2022-09-03T10:36:41;1.10;;;0.70;;
10904;SDS011;5505;51.450;9.254;2022-09-03T10:39:40;25.37;;;1.60;;
10904;SDS011;5505;51.450;9.254;2022-09-03T10:42:40;1.60;;;0.50;;
10904;SDS011;5505;51.450;9.254;2022-09-03T10:45:34;0.97;;;0.53;;
10904;SDS011;5505;51.450;9.254;2022-09-03T10:48:29;0.73;;;0.50;;
10904;SDS011;5505;51.450;9.254;2022-09-03T10:51:35;1.23;;;0.50;;
10904;SDS011;5505;51.450;9.254;2022-09-03T10:54:31;1.60;;;0.50;;
10904;SDS011;5505;51.450;9.254;2022-09-03T10:57:30;2.93;;;0.53;;
10904;SDS011;5505;51.450;9.254;2022-09-03T11:00:25;0.87;;;0.60;;
10904;SDS011;5505;51.450;9.254;2022-09-03T11:03:33;1.53;;;0.50;;
10904;SDS011;5505;51.450;9.254;2022-09-03T11:06:31;0.97;;;0.50;;
10904;SDS011;5505;51.450;9.254;2022-09-03T11:09:29;1.37;;;0.80;;
10904;SDS011;5505;51.450;9.254;2022-09-03T11:12:22;2.97;;;0.60;;
10904;SDS011;5505;51.450;9.254;2022-09-03T11:15:17;0.73;;;0.60;;
10904;SDS011;5505;51.450;9.254;2022-09-03T11:18:11;0.70;;;0.60;;
10904;SDS011;5505;51.450;9.254;2022-09-03T11:21:08;3.83;;;0.70;;
10904;SDS011;5505;51.450;9.254;2022-09-03T11:24:01;1.03;;;0.70;;
10904;SDS011;5505;51.450;9.254;2022-09-03T11:26:54;1.80;;;0.60;;
10904;SDS011;5505;51.450;9.254;2022-09-03T11:29:54;2.53;;;0.80;;
10904;SDS011;5505;51.450;9.254;2022-09-03T11:32:46;0.50;;;0.40;;
10904;SDS011;5505;51.450;9.254;2022-09-03T11:35:39;0.80;;;0.50;;
10904;SDS011;5505;51.450;9.254;2022-09-03T11:38:29;2.60;;;0.70;;
10904;SDS011;5505;51.450;9.254;2022-09-03T11:41:22;0.60;;;0.50;;
10904;SDS011;5505;51.450;9.254;2022-09-03T11:44:16;0.93;;;0.50;;
10904;SDS011;5505;51.450;9.254;2022-09-03T11:47:13;1.80;;;0.60;;
10904;SDS011;5505;51.450;9.254;2022-09-03T11:50:04;0.83;;;0.50;;
10904;SDS011;5505;51.450;9.254;2022-09-03T11:53:06;2.93;;;0.77;;
10904;SDS011;5505;51.450;9.254;2022-09-03T11:55:58;1.90;;;0.63;;
10904;SDS011;5505;51.450;9.254;2022-09-03T11:58:57;1.03;;;0.60;;
10904;SDS011;5505;51.450;9.254;2022-09-03T12:01:50;3.60;;;0.80;;
10904;SDS011;5505;51.450;9.254;2022-09-03T12:04:46;2.10;;;0.70;;
10904;SDS011;5505;51.450;9.254;2022-09-03T12:07:46;0.93;;;0.63;;
10904;SDS011;5505;51.450;9.254;2022-09-03T12:11:01;1.03;;;0.63;;
10904;SDS011;5505;51.450;9.254;2022-09-03T12:13:59;1.80;;;0.63;;
10904;SDS011;5505;51.450;9.254;2022-09-03T12:16:59;1.47;;;0.53;;
10904;SDS011;5505;51.450;9.254;2022-09-03T12:19:57;0.90;;;0.70;;
10904;SDS011;5505;51.450;9.254;2022-09-03T12:22:44;0.77;;;0.60;;
10904;SDS011;5505;51.450;9.254;2022-09-03T12:25:31;0.80;;;0.60;;
10904;SDS011;5505;51.450;9.254;2022-09-03T12:28:20;0.60;;;0.57;;
10904;SDS011;5505;51.450;9.254;2022-09-03T12:31:13;1.50;;;0.53;;
10904;SDS011;5505;51.450;9.254;2022-09-03T12:34:06;1.13;;;0.80;;
10904;SDS011;5505;51.450;9.254;2022-09-03T12:36:56;0.97;;;0.70;;
10904;SDS011;5505;51.450;9.254;2022-09-03T12:39:48;0.70;;;0.60;;
10904;SDS011;5505;51.450;9.254;2022-09-03T12:42:36;0.77;;;0.70;;
10904;SDS011;5505;51.450;9.254;2022-09-03T12:45:25;2.77;;;0.70;;
10904;SDS011;5505;51.450;9.254;2022-09-03T12:48:12;1.20;;;0.60;;
10904;SDS011;5505;51.450;9.254;2022-09-03T12:51:01;0.87;;;0.50;;
10904;SDS011;5505;51.450;9.254;2022-09-03T12:53:48;1.60;;;0.50;;
10904;SDS011;5505;51.450;9.254;2022-09-03T12:56:37;0.80;;;0.50;;
10904;SDS011;5505;51.450;9.254;2022-09-03T12:59:26;2.30;;;0.50;;
10904;SDS011;5505;51.450;9.254;2022-09-03T13:02:20;2.83;;;0.60;;
10904;SDS011;5505;51.450;9.254;2022-09-03T13:05:11;3.30;;;0.90;;
10904;SDS011;5505;51.450;9.254;2022-09-03T13:08:02;1.07;;;0.70;;
10904;SDS011;5505;51.450;9.254;2022-09-03T13:10:52;2.70;;;0.60;;
10904;SDS011;5505;51.450;9.254;2022-09-03T13:13:47;3.00;;;0.70;;
10904;SDS011;5505;51.450;9.254;2022-09-03T13:23:07;1.63;;;0.50;;
10904;SDS011;5505;51.450;9.254;2022-09-03T13:26:02;1.07;;;0.93;;
10904;SDS011;5505;51.450;9.254;2022-09-03T13:29:04;2.57;;;0.50;;
10904;SDS011;5505;51.450;9.254;2022-09-03T13:32:10;1.10;;;0.60;;
10904;SDS011;5505;51.450;9.254;2022-09-03T13:35:08;1.80;;;0.70;;
10904;SDS011;5505;51.450;9.254;2022-09-03T13:38:05;9.10;;;0.93;;
10904;SDS011;5505;51.450;9.254;2022-09-03T13:40:59;1.57;;;0.53;;
10904;SDS011;5505;51.450;9.254;2022-09-03T13:43:53;1.37;;;0.70;;
10904;SDS011;5505;51.450;9.254;2022-09-03T13:46:44;1.27;;;0.70;;
10904;SDS011;5505;51.450;9.254;2022-09-03T13:49:38;3.03;;;0.67;;
10904;SDS011;5505;51.450;9.254;2022-09-03T13:52:49;1.90;;;0.60;;
10904;SDS011;5505;51.450;9.254;2022-09-03T13:55:43;1.07;;;0.60;;
10904;SDS011;5505;51.450;9.254;2022-09-03T13:58:33;1.20;;;0.70;;
10904;SDS011;5505;51.450;9.254;2022-09-03T14:01:32;2.40;;;0.70;;
10904;SDS011;5505;51.450;9.254;2022-09-03T14:04:46;3.23;;;0.70;;
10904;SDS011;5505;51.450;9.254;2022-09-03T14:07:45;0.97;;;0.60;;
10904;SDS011;5505;51.450;9.254;2022-09-03T14:10:47;2.27;;;0.80;;
10904;SDS011;5505;51.450;9.254;2022-09-03T14:13:44;2.20;;;0.90;;
10904;SDS011;5505;51.450;9.254;2022-09-03T14:16:40;0.97;;;0.70;;
10904;SDS011;5505;51.450;9.254;2022-09-03T14:19:34;2.27;;;0.83;;
10904;SDS011;5505;51.450;9.254;2022-09-03T14:22:28;1.77;;;0.90;;
10904;SDS011;5505;51.450;9.254;2022-09-03T14:25:25;0.97;;;0.70;;
10904;SDS011;5505;51.450;9.254;2022-09-03T14:28:14;2.37;;;0.77;;
10904;SDS011;5505;51.450;9.254;2022-09-03T14:31:12;1.17;;;0.50;;
10904;SDS011;5505;51.450;9.254;2022-09-03T14:34:11;1.43;;;0.70;;
10904;SDS011;5505;51.450;9.254;2022-09-03T14:37:04;2.57;;;0.90;;
10904;SDS011;5505;51.450;9.254;2022-09-03T14:40:01;1.30;;;0.83;;
10904;SDS011;5505;51.450;9.254;2022-09-03T14:42:59;4.00;;;0.80;;
10904;SDS011;5505;51.450;9.254;2022-09-03T14:46:04;2.27;;;0.60;;
10904;SDS011;5505;51.450;9.254;2022-09-03T14:49:08;1.87;;;0.80;;
10904;SDS011;5505;51.450;9.254;2022-09-03T14:52:06;0.60;;;0.60;;
10904;SDS011;5505;51.450;9.254;2022-09-03T14:55:11;0.97;;;0.73;;
10904;SDS011;5505;51.450;9.254;2022-09-03T14:58:13;0.90;;;0.73;;
10904;SDS011;5505;51.450;9.254;2022-09-03T15:01:09;1.57;;;0.70;;
10904;SDS011;5505;51.450;9.254;2022-09-03T15:07:21;2.03;;;0.70;;
10904;SDS011;5505;51.450;9.254;2022-09-03T15:10:17;2.50;;;0.70;;
10904;SDS011;5505;51.450;9.254;2022-09-03T15:13:15;1.07;;;0.70;;
10904;SDS011;5505;51.450;9.254;2022-09-03T15:16:07;2.63;;;0.80;;
10904;SDS011;5505;51.450;9.254;2022-09-03T15:19:10;1.73;;;0.50;;
10904;SDS011;5505;51.450;9.254;2022-09-03T15:22:05;3.17;;;0.83;;
10904;SDS011;5505;51.450;9.254;2022-09-03T15:25:02;2.20;;;0.53;;
10904;SDS011;5505;51.450;9.254;2022-09-03T15:27:59;1.37;;;0.80;;
10904;SDS011;5505;51.450;9.254;2022-09-03T15:30:55;0.93;;;0.60;;
10904;SDS011;5505;51.450;9.254;2022-09-03T15:33:49;0.80;;;0.80;;
10904;SDS011;5505;51.450;9.254;2022-09-03T15:36:44;1.63;;;0.87;;
10904;SDS011;5505;51.450;9.254;2022-09-03T15:39:35;1.17;;;0.80;;
10904;SDS011;5505;51.450;9.254;2022-09-03T15:42:28;1.73;;;0.60;;
10904;SDS011;5505;51.450;9.254;2022-09-03T15:45:18;0.83;;;0.80;;
10904;SDS011;5505;51.450;9.254;2022-09-03T15:48:18;3.03;;;0.80;;
10904;SDS011;5505;51.450;9.254;2022-09-03T15:51:14;1.50;;;0.90;;
10904;SDS011;5505;51.450;9.254;2022-09-03T15:54:06;0.57;;;0.57;;
10904;SDS011;5505;51.450;9.254;2022-09-03T15:57:01;2.37;;;0.70;;
10904;SDS011;5505;51.450;9.254;2022-09-03T15:59:53;1.70;;;0.70;;
10904;SDS011;5505;51.450;9.254;2022-09-03T16:02:46;0.90;;;0.73;;
10904;SDS011;5505;51.450;9.254;2022-09-03T16:05:41;1.87;;;0.60;;
10904;SDS011;5505;51.450;9.254;2022-09-03T16:08:37;1.60;;;0.80;;
10904;SDS011;5505;51.450;9.254;2022-09-03T16:11:31;2.10;;;0.80;;
10904;SDS011;5505;51.450;9.254;2022-09-03T16:14:22;1.17;;;0.80;;
10904;SDS011;5505;51.450;9.254;2022-09-03T16:17:18;1.97;;;0.77;;
10904;SDS011;5505;51.450;9.254;2022-09-03T16:20:13;1.00;;;0.90;;
10904;SDS011;5505;51.450;9.254;2022-09-03T16:23:06;2.73;;;0.83;;
10904;SDS011;5505;51.450;9.254;2022-09-03T16:25:59;2.07;;;0.80;;
10904;SDS011;5505;51.450;9.254;2022-09-03T16:28:51;1.23;;;1.03;;
10904;SDS011;5505;51.450;9.254;2022-09-03T16:31:47;1.50;;;0.70;;
10904;SDS011;5505;51.450;9.254;2022-09-03T16:34:47;1.40;;;0.70;;
10904;SDS011;5505;51.450;9.254;2022-09-03T16:37:46;2.13;;;0.60;;
10904;SDS011;5505;51.450;9.254;2022-09-03T16:40:46;2.07;;;0.60;;
10904;SDS011;5505;51.450;9.254;2022-09-03T16:43:41;2.30;;;0.60;;
10904;SDS011;5505;51.450;9.254;2022-09-03T16:46:34;3.40;;;0.70;;
10904;SDS011;5505;51.450;9.254;2022-09-03T16:49:33;3.50;;;0.80;;
10904;SDS011;5505;51.450;9.254;2022-09-03T16:52:28;1.17;;;1.00;;
10904;SDS011;5505;51.450;9.254;2022-09-03T16:55:29;3.17;;;0.90;;
10904;SDS011;5505;51.450;9.254;2022-09-03T16:58:42;1.77;;;1.27;;
10904;SDS011;5505;51.450;9.254;2022-09-03T17:01:44;4.57;;;2.17;;
10904;SDS011;5505;51.450;9.254;2022-09-03T17:08:04;1.50;;;0.93;;
10904;SDS011;5505;51.450;9.254;2022-09-03T17:11:02;2.20;;;0.70;;
10904;SDS011;5505;51.450;9.254;2022-09-03T17:14:01;1.47;;;1.00;;
10904;SDS011;5505;51.450;9.254;2022-09-03T17:17:01;2.03;;;0.73;;
10904;SDS011;5505;51.450;9.254;2022-09-03T17:19:55;1.33;;;0.70;;
10904;SDS011;5505;51.450;9.254;2022-09-03T17:22:54;0.87;;;0.67;;
10904;SDS011;5505;51.450;9.254;2022-09-03T17:25:55;1.10;;;0.97;;
10904;SDS011;5505;51.450;9.254;2022-09-03T17:28:49;0.80;;;0.80;;
10904;SDS011;5505;51.450;9.254;2022-09-03T17:31:47;4.33;;;1.33;;
10904;SDS011;5505;51.450;9.254;2022-09-03T17:34:42;2.17;;;0.90;;
10904;SDS011;5505;51.450;9.254;2022-09-03T17:37:42;3.27;;;0.80;;
10904;SDS011;5505;51.450;9.254;2022-09-03T17:40:40;2.03;;;0.73;;
10904;SDS011;5505;51.450;9.254;2022-09-03T17:43:43;1.73;;;0.70;;
10904;SDS011;5505;51.450;9.254;2022-09-03T17:46:39;1.47;;;0.60;;
10904;SDS011;5505;51.450;9.254;2022-09-03T17:49:33;2.50;;;0.90;;
10904;SDS011;5505;51.450;9.254;2022-09-03T17:52:29;1.70;;;0.90;;